Time;durP1;ratioP1;P1;durP2;ratioP2;P2;SDS_P1;SDS_P2;PMS_P1;PMS_P2;Temp;Humidity;BMP_temperature;BMP_pressure;BME280_temperature;BME280_humidity;BME280_pressure;Samples;Min_cycle;Max_cycle;Signal;HPM_P1;HPM_P2
2021/11/22 00:01:47;;;;;;;38.10;18.40;;;;;;;6.64;79.69;98815.50;24505;1354;3030895;-68
2021/11/22 00:04:17;;;;;;;34.00;17.50;;;;;;;6.39;80.84;98815.80;24501;1358;3049346;-65
2021/11/22 00:06:47;;;;;;;22.60;12.10;;;;;;;6.29;81.15;98810.26;24493;1357;3026572;-68
2021/11/22 00:09:16;;;;;;;31.90;15.50;;;;;;;6.24;81.79;98803.56;24443;1355;3029747;-66
2021/11/22 00:11:45;;;;;;;32.70;17.00;;;;;;;6.82;80.39;98800.02;24485;1354;3049670;-70
2021/11/22 00:14:34;;;;;;;38.70;18.00;;;;;;;6.98;79.29;98801.42;24447;1354;3053555;-71
2021/11/22 00:17:03;;;;;;;32.20;17.80;;;;;;;6.61;81.01;98797.71;24461;1358;3026175;-74
2021/11/22 00:19:52;;;;;;;32.40;16.60;;;;;;;6.38;81.97;98802.25;24462;1354;3068686;-74
2021/11/22 00:22:25;;;;;;;31.70;14.20;;;;;;;6.49;81.43;98796.27;24456;1354;3026850;-72
2021/11/22 00:25:04;;;;;;;36.00;16.50;;;;;;;6.89;80.41;98798.94;24466;1354;3054744;-68
2021/11/22 00:27:53;;;;;;;36.10;18.40;;;;;;;7.25;79.10;98795.88;24459;1351;3051940;-73
2021/11/22 00:30:52;;;;;;;36.10;17.80;;;;;;;6.87;80.19;98798.88;24466;1354;3058929;-69
2021/11/22 00:33:23;;;;;;;42.70;19.00;;;;;;;6.81;80.23;98801.86;24471;1357;3026554;-69
2021/11/22 00:35:55;;;;;;;31.30;16.00;;;;;;;6.77;80.79;98800.30;24475;1354;3026808;-67
2021/11/22 00:38:24;;;;;;;34.80;16.80;;;;;;;7.05;80.56;98795.44;24539;1354;3026372;-68
2021/11/22 00:40:54;;;;;;;45.40;19.00;;;;;;;7.20;79.55;98791.27;24490;1354;3053470;-70
2021/11/22 00:43:24;;;;;;;38.10;17.30;;;;;;;7.20;79.74;98790.44;24514;1355;3026860;-71
2021/11/22 00:45:53;;;;;;;46.70;20.50;;;;;;;7.09;79.48;98791.25;24512;1354;3026392;-70
2021/11/22 00:48:22;;;;;;;40.30;19.70;;;;;;;6.70;81.49;98803.52;24480;1357;3051445;-70
2021/11/22 00:50:53;;;;;;;34.80;16.50;;;;;;;6.52;82.39;98802.40;24469;1354;3027539;-72
2021/11/22 00:53:23;;;;;;;31.30;16.90;;;;;;;7.32;80.35;98794.27;24529;1356;3026322;-73
2021/11/22 00:55:52;;;;;;;36.70;16.40;;;;;;;7.23;79.84;98792.02;24493;1355;3029863;-69
2021/11/22 00:58:21;;;;;;;46.10;19.20;;;;;;;7.24;79.85;98783.94;24518;1351;3052690;-69
2021/11/22 01:00:50;;;;;;;49.10;19.90;;;;;;;6.95;80.72;98784.89;24495;1354;3026587;-74
2021/11/22 01:03:19;;;;;;;39.40;20.20;;;;;;;6.86;80.88;98790.07;24511;1354;3050285;-73
2021/11/22 01:05:48;;;;;;;28.80;14.50;;;;;;;6.76;81.77;98790.98;24529;1352;3026699;-65
2021/11/22 01:08:18;;;;;;;36.30;18.00;;;;;;;7.24;79.87;98779.19;24493;1360;3058929;-68
2021/11/22 01:10:48;;;;;;;39.50;17.40;;;;;;;7.33;79.80;98778.02;24495;1354;3028628;-69
2021/11/22 01:13:37;;;;;;;29.00;15.60;;;;;;;7.49;79.13;98777.23;24470;1357;3054761;-68
2021/11/22 01:16:06;;;;;;;34.20;18.20;;;;;;;7.30;79.21;98787.41;24503;1355;3026696;-72
2021/11/22 01:18:36;;;;;;;39.40;19.70;;;;;;;7.14;80.02;98793.71;24488;1358;3026927;-74
2021/11/22 01:21:05;;;;;;;33.40;18.50;;;;;;;7.39;79.61;98800.98;24491;1357;3029051;-71
2021/11/22 01:23:34;;;;;;;41.60;21.20;;;;;;;7.09;80.70;98810.22;24512;1356;3050815;-70
2021/11/22 01:26:03;;;;;;;29.10;16.20;;;;;;;6.97;81.42;98809.48;24492;1348;3027303;-73
2021/11/22 01:28:32;;;;;;;44.20;21.60;;;;;;;6.83;81.50;98804.17;24523;1354;3052715;-66
2021/11/22 01:31:01;;;;;;;42.40;21.90;;;;;;;6.61;82.60;98811.64;24514;1354;3026313;-73
2021/11/22 01:33:30;;;;;;;39.70;19.70;;;;;;;6.46;83.54;98808.64;24511;1355;3051605;-70
2021/11/22 01:35:59;;;;;;;48.50;21.80;;;;;;;7.14;81.73;98810.80;24515;1357;3026949;-67
2021/11/22 01:38:28;;;;;;;36.80;19.10;;;;;;;7.30;80.14;98799.95;24534;1354;3058136;-68
2021/11/22 01:40:57;;;;;;;42.30;20.90;;;;;;;7.57;79.04;98809.54;24501;1355;3026006;-67
2021/11/22 01:43:26;;;;;;;49.90;25.50;;;;;;;7.30;79.44;98801.14;24461;1353;3051440;-69
2021/11/22 01:45:55;;;;;;;52.20;23.90;;;;;;;7.10;80.01;98806.16;24459;1354;3026463;-68
2021/11/22 01:48:24;;;;;;;35.40;17.50;;;;;;;7.52;79.13;98798.66;24517;1355;3052198;-68
2021/11/22 01:50:53;;;;;;;45.60;21.60;;;;;;;7.38;79.25;98800.37;24526;1352;3026877;-67
2021/11/22 01:53:23;;;;;;;50.60;24.10;;;;;;;7.54;78.60;98796.83;24494;1356;3048229;-66
2021/11/22 01:55:52;;;;;;;47.90;21.90;;;;;;;7.19;79.45;98794.63;24435;1351;3029892;-71
2021/11/22 01:58:21;;;;;;;43.90;22.40;;;;;;;7.00;80.21;98789.10;24487;1354;3026717;-74
2021/11/22 02:00:52;;;;;;;41.90;20.00;;;;;;;6.94;81.20;98800.05;24444;1354;3051025;-67
2021/11/22 02:03:21;;;;;;;42.60;22.10;;;;;;;7.43;79.21;98807.92;24527;1358;3026609;-72
2021/11/22 02:05:51;;;;;;;36.90;19.70;;;;;;;7.25;79.27;98815.38;24518;1349;3028179;-70
2021/11/22 02:08:21;;;;;;;36.20;18.40;;;;;;;7.28;79.07;98822.19;24519;1354;3049642;-71
2021/11/22 02:10:50;;;;;;;41.30;21.00;;;;;;;6.78;80.11;98823.97;24493;1355;3026674;-68
2021/11/22 02:13:20;;;;;;;26.40;15.20;;;;;;;6.63;81.40;98811.55;24512;1354;3030749;-71
2021/11/22 02:15:49;;;;;;;41.60;21.60;;;;;;;7.38;78.21;98816.05;24505;1351;3051099;-71
2021/11/22 02:18:19;;;;;;;40.90;21.80;;;;;;;7.23;78.87;98816.18;24524;1354;3026438;-69
2021/11/22 02:20:48;;;;;;;44.80;22.90;;;;;;;7.20;78.78;98809.39;24520;1353;3027820;-68
2021/11/22 02:23:17;;;;;;;46.00;21.90;;;;;;;6.82;79.80;98803.85;24510;1354;3026813;-70
2021/11/22 02:25:46;;;;;;;44.90;22.30;;;;;;;6.64;80.60;98811.47;24514;1354;3051181;-65
2021/11/22 02:28:16;;;;;;;41.70;18.70;;;;;;;6.44;81.57;98804.02;24494;1355;3026456;-72
2021/11/22 02:30:46;;;;;;;43.80;21.20;;;;;;;6.89;80.75;98799.64;24457;1360;3050743;-70
2021/11/22 02:33:17;;;;;;;41.80;18.80;;;;;;;7.22;78.77;98797.98;24494;1356;3026234;-68
2021/11/22 02:35:49;;;;;;;44.70;21.50;;;;;;;7.18;78.38;98798.36;24462;1354;3027851;-69
2021/11/22 02:38:19;;;;;;;42.10;22.60;;;;;;;7.17;77.98;98802.80;24523;1357;3026728;-75
2021/11/22 02:40:48;;;;;;;43.30;22.60;;;;;;;6.88;78.71;98808.79;24528;1354;3028836;-75
2021/11/22 02:43:18;;;;;;;41.60;19.90;;;;;;;6.51;80.50;98821.05;24495;1356;3027051;-69
2021/11/22 02:45:47;;;;;;;39.20;20.20;;;;;;;6.84;80.30;98823.23;24483;1354;3057343;-72
2021/11/22 02:48:16;;;;;;;39.20;20.50;;;;;;;7.21;78.30;98822.59;24514;1348;3026499;-71
2021/11/22 02:50:46;;;;;;;45.90;25.50;;;;;;;7.41;77.30;98821.65;24529;1357;3026932;-70
2021/11/22 02:53:16;;;;;;;45.10;22.70;;;;;;;6.83;78.88;98830.13;24495;1355;3026904;-70
2021/11/22 02:55:45;;;;;;;40.00;19.30;;;;;;;6.47;80.37;98835.73;24499;1355;3049203;-72
2021/11/22 02:58:14;;;;;;;32.90;14.40;;;;;;;6.50;80.37;98839.39;24539;1357;3026876;-64
2021/11/22 03:00:43;;;;;;;33.90;17.20;;;;;;;7.43;78.22;98841.36;24486;1354;3026587;-66
2021/11/22 03:03:12;;;;;;;35.10;18.20;;;;;;;7.09;77.85;98838.23;24439;1355;3028119;-71
2021/11/22 03:05:42;;;;;;;36.90;19.30;;;;;;;6.67;79.77;98831.70;24478;1354;3054752;-65
2021/11/22 03:08:11;;;;;;;47.50;24.40;;;;;;;6.42;80.63;98827.27;24436;1354;3029404;-72
2021/11/22 03:10:40;;;;;;;46.00;23.60;;;;;;;6.42;80.71;98828.35;24474;1354;3049070;-66
2021/11/22 03:13:10;;;;;;;41.20;20.70;;;;;;;6.20;81.81;98835.94;24439;1351;3027018;-71
2021/11/22 03:15:39;;;;;;;37.60;19.10;;;;;;;6.93;80.09;98838.80;24486;1356;3027534;-65
2021/11/22 03:18:21;;;;;;;42.70;23.30;;;;;;;7.09;78.32;98839.79;24467;1354;3071970;-71
2021/11/22 03:20:50;;;;;;;44.70;23.50;;;;;;;6.71;79.52;98845.73;24520;1356;3051381;-69
2021/11/22 03:23:19;;;;;;;56.90;25.70;;;;;;;6.90;78.72;98840.34;24500;1358;3026611;-73
2021/11/22 03:25:48;;;;;;;48.70;24.50;;;;;;;6.60;79.89;98849.66;24503;1357;3071188;-68
2021/11/22 03:28:18;;;;;;;51.20;23.60;;;;;;;6.24;81.55;98848.08;24492;1354;3026595;-66
2021/11/22 03:30:47;;;;;;;44.30;23.90;;;;;;;6.69;80.78;98848.61;24513;1352;3026522;-67
2021/11/22 03:33:17;;;;;;;46.00;23.70;;;;;;;6.89;79.16;98844.55;24492;1353;3027086;-68
2021/11/22 03:35:48;;;;;;;51.20;24.80;;;;;;;6.85;79.27;98847.04;24511;1352;3026903;-70
2021/11/22 03:38:20;;;;;;;50.90;27.80;;;;;;;6.88;78.97;98842.69;24485;1357;3026953;-71
2021/11/22 03:40:52;;;;;;;53.70;23.90;;;;;;;6.43;80.53;98847.05;24522;1356;3027119;-72
2021/11/22 03:43:27;;;;;;;53.30;24.40;;;;;;;6.08;82.06;98854.09;24524;1354;3026049;-67
2021/11/22 03:45:57;;;;;;;45.70;24.00;;;;;;;6.48;81.26;98855.33;24407;1360;3068029;-69
2021/11/22 03:48:26;;;;;;;48.20;24.30;;;;;;;6.96;79.50;98844.70;24459;1354;3027174;-66
2021/11/22 03:50:55;;;;;;;52.30;26.00;;;;;;;6.73;80.10;98844.38;24510;1348;3050330;-71
2021/11/22 03:53:24;;;;;;;56.60;28.00;;;;;;;6.53;80.56;98850.70;24460;1355;3026570;-74
2021/11/22 03:55:53;;;;;;;57.60;27.80;;;;;;;6.32;81.38;98857.40;24527;1354;3052286;-72
2021/11/22 03:58:22;;;;;;;48.60;21.20;;;;;;;6.25;81.71;98854.25;24512;1357;3026173;-70
2021/11/22 04:00:51;;;;;;;52.20;24.50;;;;;;;6.85;80.17;98854.35;24589;1357;3026620;-73
2021/11/22 04:03:21;;;;;;;53.50;25.90;;;;;;;7.27;78.27;98852.70;24489;1354;3052782;-71
2021/11/22 04:05:51;;;;;;;49.20;24.60;;;;;;;7.04;78.12;98846.33;24525;1352;3027316;-72
2021/11/22 04:08:21;;;;;;;51.90;24.90;;;;;;;6.98;78.52;98855.20;24551;1359;3027173;-70
2021/11/22 04:10:50;;;;;;;58.00;28.10;;;;;;;6.44;80.53;98847.34;24476;1357;3026077;-73
2021/11/22 04:13:20;;;;;;;58.80;25.90;;;;;;;6.37;81.29;98854.02;24561;1355;3027165;-75
2021/11/22 04:15:49;;;;;;;60.80;28.30;;;;;;;6.81;80.38;98857.72;24503;1358;3070986;-71
2021/11/22 04:18:19;;;;;;;60.00;29.30;;;;;;;6.92;79.12;98859.20;24505;1354;3026466;-70
2021/11/22 04:20:48;;;;;;;60.40;29.20;;;;;;;6.81;79.79;98856.33;24501;1358;3026142;-66
2021/11/22 04:23:18;;;;;;;76.50;34.30;;;;;;;6.70;79.94;98861.61;24468;1357;3028563;-67
2021/11/22 04:25:47;;;;;;;69.80;30.90;;;;;;;6.34;81.20;98866.30;24499;1355;3048519;-66
2021/11/22 04:28:16;;;;;;;54.70;24.80;;;;;;;6.42;81.12;98869.21;24520;1358;3026828;-70
2021/11/22 04:30:45;;;;;;;59.80;27.40;;;;;;;6.81;80.62;98872.02;24480;1358;3070593;-73
2021/11/22 04:33:14;;;;;;;65.70;29.90;;;;;;;6.99;79.28;98873.95;24480;1354;3026430;-71
2021/11/22 04:35:43;;;;;;;66.20;28.50;;;;;;;6.80;79.58;98876.90;24550;1356;3026793;-68
2021/11/22 04:38:12;;;;;;;54.30;26.30;;;;;;;7.03;78.69;98879.48;24486;1358;3068441;-68
2021/11/22 04:40:41;;;;;;;58.10;28.50;;;;;;;6.81;78.75;98879.31;24468;1356;3026773;-64
2021/11/22 04:43:10;;;;;;;46.20;23.70;;;;;;;6.66;79.67;98889.19;24531;1360;3052384;-69
2021/11/22 04:45:42;;;;;;;56.20;26.80;;;;;;;6.96;79.20;98889.98;24528;1359;3027144;-69
2021/11/22 04:48:11;;;;;;;57.00;25.60;;;;;;;7.26;78.00;98894.23;24488;1356;3026761;-67
2021/11/22 04:50:40;;;;;;;62.80;31.30;;;;;;;7.18;77.93;98903.56;24449;1356;3027220;-69
2021/11/22 04:53:09;;;;;;;66.00;31.60;;;;;;;7.13;77.82;98902.45;24478;1356;3026417;-67
2021/11/22 04:55:41;;;;;;;60.00;28.80;;;;;;;6.88;78.63;98902.10;24485;1353;3049771;-69
2021/11/22 04:58:10;;;;;;;54.10;25.40;;;;;;;6.71;79.48;98914.63;24537;1352;3026496;-71
2021/11/22 05:00:39;;;;;;;42.60;21.50;;;;;;;6.98;79.26;98910.92;24486;1360;3026345;-71
2021/11/22 05:03:12;;;;;;;55.50;26.30;;;;;;;7.12;78.13;98905.83;24525;1358;3051492;-76
2021/11/22 05:05:42;;;;;;;59.50;26.10;;;;;;;6.99;78.73;98905.14;24544;1354;3026554;-69
2021/11/22 05:08:11;;;;;;;66.30;30.50;;;;;;;6.73;79.58;98916.27;24502;1355;3026527;-70
2021/11/22 05:10:42;;;;;;;64.10;27.50;;;;;;;6.72;79.64;98915.63;24506;1356;3048600;-69
2021/11/22 05:13:15;;;;;;;53.10;23.80;;;;;;;6.52;80.69;98922.62;24469;1357;3026491;-70
2021/11/22 05:15:44;;;;;;;65.30;30.00;;;;;;;7.23;79.03;98919.85;24560;1356;3027133;-69
2021/11/22 05:18:13;;;;;;;71.10;31.50;;;;;;;7.46;77.58;98925.86;24537;1355;3027936;-66
2021/11/22 05:20:43;;;;;;;66.50;30.60;;;;;;;7.36;77.84;98930.60;24487;1356;3053967;-69
2021/11/22 05:23:12;;;;;;;70.60;30.70;;;;;;;7.28;77.22;98934.55;24467;1355;3026469;-70
2021/11/22 05:25:41;;;;;;;79.20;33.30;;;;;;;6.83;78.91;98937.67;24497;1354;3026784;-73
2021/11/22 05:28:11;;;;;;;73.80;31.90;;;;;;;6.82;79.10;98948.53;24507;1354;3027139;-68
2021/11/22 05:30:40;;;;;;;63.00;28.50;;;;;;;6.79;80.15;98958.23;24508;1359;3028770;-74
2021/11/22 05:33:09;;;;;;;66.40;27.80;;;;;;;7.49;77.50;98945.08;24561;1354;3027703;-69
2021/11/22 05:35:39;;;;;;;62.10;29.30;;;;;;;7.72;76.44;98945.15;24489;1358;3051025;-71
2021/11/22 05:38:08;;;;;;;86.40;37.60;;;;;;;7.44;76.59;98949.86;24480;1354;3026652;-77
2021/11/22 05:40:37;;;;;;;60.00;26.60;;;;;;;7.07;78.14;98955.77;24500;1356;3055279;-73
2021/11/22 05:43:06;;;;;;;88.60;36.50;;;;;;;6.97;78.32;98954.20;24480;1359;3026455;-74
2021/11/22 05:45:35;;;;;;;71.40;31.50;;;;;;;6.77;79.24;98963.79;24489;1355;3053979;-71
2021/11/22 05:48:07;;;;;;;76.00;31.70;;;;;;;7.09;78.86;98963.45;24473;1357;3043279;-72
2021/11/22 05:50:36;;;;;;;59.50;25.10;;;;;;;7.50;77.12;98958.24;24513;1355;3050854;-68
2021/11/22 05:53:06;;;;;;;77.70;34.80;;;;;;;7.88;75.36;98965.17;24483;1357;3026897;-70
2021/11/22 05:55:39;;;;;;;82.70;34.70;;;;;;;7.34;76.87;98965.75;24518;1357;3028317;-69
2021/11/22 05:58:10;;;;;;;94.60;40.70;;;;;;;7.30;76.83;98974.70;24520;1357;3027613;-68
2021/11/22 06:00:40;;;;;;;84.30;31.30;;;;;;;7.17;77.37;98974.18;24515;1354;3030431;-73
2021/11/22 06:03:09;;;;;;;79.50;34.70;;;;;;;7.22;77.50;98976.86;24456;1357;3026189;-74
2021/11/22 06:05:39;;;;;;;78.30;33.80;;;;;;;7.17;77.47;98981.16;24469;1357;3029224;-69
2021/11/22 06:08:08;;;;;;;82.30;36.50;;;;;;;7.41;76.71;98981.25;24433;1354;3026726;-71
2021/11/22 06:10:37;;;;;;;68.60;29.10;;;;;;;7.37;76.86;98987.55;24470;1356;3026991;-69
2021/11/22 06:13:11;;;;;;;79.20;35.00;;;;;;;7.23;76.65;98989.34;24475;1355;3070539;-72
2021/11/22 06:15:53;;;;;;;94.60;38.40;;;;;;;6.81;78.43;98990.39;24489;1352;3049545;-71
2021/11/22 06:18:22;;;;;;;54.20;22.50;;;;;;;6.97;78.28;98993.38;24474;1358;3026846;-68
2021/11/22 06:20:51;;;;;;;75.80;32.30;;;;;;;7.67;75.75;98983.83;24478;1355;3026626;-72
2021/11/22 06:23:20;;;;;;;71.70;33.90;;;;;;;7.70;75.67;98981.17;24499;1358;3048363;-67
2021/11/22 06:25:49;;;;;;;76.80;32.40;;;;;;;7.68;75.25;98984.08;24429;1359;3028685;-69
2021/11/22 06:28:19;;;;;;;70.60;33.90;;;;;;;7.48;75.77;98987.08;24488;1359;3069621;-72
2021/11/22 06:30:49;;;;;;;83.50;38.00;;;;;;;7.19;76.92;98985.92;24513;1360;3026942;-69
2021/11/22 06:33:18;;;;;;;67.90;29.50;;;;;;;7.05;77.64;98991.39;24498;1360;3028602;-68
2021/11/22 06:35:47;;;;;;;65.70;29.10;;;;;;;7.48;76.32;98987.98;24486;1352;3070884;-68
2021/11/22 06:38:18;;;;;;;69.90;31.10;;;;;;;7.96;74.73;98985.13;24457;1356;3026566;-68
2021/11/22 06:40:47;;;;;;;58.70;27.60;;;;;;;7.89;74.01;98989.17;24450;1359;3053066;-71
2021/11/22 06:43:16;;;;;;;67.70;32.60;;;;;;;7.61;74.89;98987.77;24488;1355;3026575;-68
2021/11/22 06:45:45;;;;;;;77.90;33.50;;;;;;;7.31;75.87;98989.97;24487;1355;3052752;-74
2021/11/22 06:48:14;;;;;;;79.70;35.70;;;;;;;7.24;76.34;98987.20;24500;1354;3026983;-71
2021/11/22 06:50:43;;;;;;;70.50;33.40;;;;;;;7.08;77.28;98992.60;24490;1356;3049314;-72
2021/11/22 06:53:12;;;;;;;73.00;31.10;;;;;;;7.72;75.68;98990.83;24496;1354;3026865;-72
2021/11/22 06:55:41;;;;;;;70.90;32.70;;;;;;;7.84;74.93;98989.09;24524;1358;3057997;-73
2021/11/22 06:58:10;;;;;;;67.10;29.10;;;;;;;8.12;73.89;98991.34;24465;1357;3029956;-70
2021/11/22 07:00:40;;;;;;;68.30;32.60;;;;;;;7.92;73.57;98996.69;24497;1359;3055770;-72
2021/11/22 07:03:09;;;;;;;86.50;34.20;;;;;;;7.40;75.26;98992.46;24516;1345;3027183;-69
2021/11/22 07:05:38;;;;;;;80.20;32.80;;;;;;;7.09;76.45;99000.04;24512;1356;3026242;-73
2021/11/22 07:08:08;;;;;;;63.30;26.80;;;;;;;7.17;76.12;99002.55;24475;1351;3051220;-66
2021/11/22 07:10:37;;;;;;;57.40;25.80;;;;;;;7.70;74.79;98996.34;24469;1358;3026745;-69
2021/11/22 07:13:07;;;;;;;60.10;30.40;;;;;;;7.84;74.07;99001.14;24482;1357;3028445;-74
2021/11/22 07:15:37;;;;;;;52.40;25.20;;;;;;;7.66;74.23;98995.20;24470;1360;3054081;-72
2021/11/22 07:18:06;;;;;;;70.50;29.70;;;;;;;7.65;73.87;98999.25;24477;1358;3027533;-69
2021/11/22 07:20:35;;;;;;;71.70;33.40;;;;;;;7.01;76.55;99009.00;24496;1359;3026069;-73
2021/11/22 07:23:06;;;;;;;68.80;29.10;;;;;;;7.04;76.54;99003.46;24493;1354;3055365;-70
2021/11/22 07:25:36;;;;;;;65.80;28.70;;;;;;;7.13;76.71;99004.36;24453;1356;3026068;-72
2021/11/22 07:28:05;;;;;;;72.30;31.80;;;;;;;7.73;75.38;99000.72;24486;1356;3026529;-70
2021/11/22 07:30:36;;;;;;;66.70;28.20;;;;;;;7.91;74.09;99001.65;24481;1359;3027690;-71
2021/11/22 07:33:05;;;;;;;68.90;31.70;;;;;;;7.81;73.88;99000.45;24475;1354;3026633;-75
2021/11/22 07:35:34;;;;;;;70.50;31.00;;;;;;;7.78;73.84;99003.73;24463;1355;3026971;-71
2021/11/22 07:38:03;;;;;;;71.00;29.60;;;;;;;7.66;74.03;99008.81;24507;1356;3026600;-73
2021/11/22 07:40:33;;;;;;;74.30;30.80;;;;;;;7.19;75.63;99021.48;24463;1358;3052524;-73
2021/11/22 07:43:02;;;;;;;62.90;29.30;;;;;;;7.03;76.95;99019.34;24497;1356;3026846;-68
2021/11/22 07:45:33;;;;;;;68.30;29.60;;;;;;;7.44;75.58;99017.65;24509;1357;3052428;-70
2021/11/22 07:48:03;;;;;;;64.60;30.70;;;;;;;7.73;74.38;99019.01;24477;1356;3026991;-69
2021/11/22 07:50:33;;;;;;;70.40;34.00;;;;;;;7.72;74.37;99019.12;24489;1357;3027258;-65
2021/11/22 07:53:02;;;;;;;79.10;32.60;;;;;;;7.47;75.05;99019.24;24491;1360;3026114;-75
2021/11/22 07:55:32;;;;;;;68.60;31.90;;;;;;;7.63;74.54;99017.48;24488;1357;3053983;-75
2021/11/22 07:58:01;;;;;;;70.10;33.50;;;;;;;7.48;74.52;99022.33;24501;1356;3026172;-67
2021/11/22 08:00:32;;;;;;;65.30;29.80;;;;;;;7.41;75.38;99026.03;24493;1357;3053948;-74
2021/11/22 08:03:01;;;;;;;65.60;32.10;;;;;;;7.85;74.20;99021.86;24453;1357;3026564;-72
2021/11/22 08:05:32;;;;;;;68.30;32.50;;;;;;;7.89;73.75;99022.82;24480;1354;3048981;-69
2021/11/22 08:08:03;;;;;;;67.70;32.30;;;;;;;7.79;73.83;99024.09;24458;1360;3026869;-71
2021/11/22 08:10:34;;;;;;;73.80;33.70;;;;;;;7.78;73.84;99028.54;24486;1355;3028080;-72
2021/11/22 08:13:06;;;;;;;81.20;36.60;;;;;;;7.58;74.50;99022.31;24484;1358;3029455;-69
2021/11/22 08:15:37;;;;;;;74.10;29.60;;;;;;;7.41;75.13;99026.20;24440;1361;3053099;-68
2021/11/22 08:18:07;;;;;;;77.90;33.70;;;;;;;7.32;75.06;99020.25;24480;1359;3026370;-70
2021/11/22 08:20:36;;;;;;;63.40;29.10;;;;;;;7.30;75.94;99014.41;24526;1360;3026797;-72
2021/11/22 08:23:06;;;;;;;62.00;29.40;;;;;;;7.91;74.26;99012.27;24503;1354;3026112;-68
2021/11/22 08:25:35;;;;;;;65.80;31.50;;;;;;;7.99;73.58;99017.78;24447;1362;3026143;-75
2021/11/22 08:28:04;;;;;;;69.30;29.80;;;;;;;7.80;74.04;99014.45;24456;1354;3051792;-71
2021/11/22 08:30:35;;;;;;;65.50;30.20;;;;;;;8.15;72.56;99022.78;24447;1358;3026778;-70
2021/11/22 08:33:05;;;;;;;64.00;28.40;;;;;;;7.99;72.57;99016.69;24438;1361;3027449;-75
2021/11/22 08:35:34;;;;;;;77.50;33.00;;;;;;;7.55;74.02;99022.25;24456;1357;3026708;-70
2021/11/22 08:38:03;;;;;;;56.00;25.50;;;;;;;7.42;74.81;99033.46;24403;1354;3028790;-72
2021/11/22 08:40:33;;;;;;;66.40;29.70;;;;;;;7.44;74.82;99031.59;24466;1360;3051628;-70
2021/11/22 08:43:02;;;;;;;66.30;29.10;;;;;;;7.71;74.12;99026.08;24511;1352;3026758;-69
2021/11/22 08:45:31;;;;;;;74.10;32.70;;;;;;;7.80;73.88;99025.08;24498;1357;3026434;-69
2021/11/22 08:48:01;;;;;;;74.40;32.00;;;;;;;8.18;72.87;99023.44;24516;1354;3049123;-69
2021/11/22 08:50:30;;;;;;;76.10;34.20;;;;;;;8.04;73.16;99024.09;24500;1356;3026746;-71
2021/11/22 08:52:59;;;;;;;83.00;37.30;;;;;;;8.04;73.22;99026.04;24501;1354;3027672;-70
2021/11/22 08:55:28;;;;;;;80.50;35.70;;;;;;;7.78;73.99;99023.48;24478;1358;3048852;-68
2021/11/22 08:57:57;;;;;;;60.60;28.00;;;;;;;7.63;74.65;99025.87;24468;1354;3026091;-72
2021/11/22 09:00:31;;;;;;;81.90;31.10;;;;;;;8.28;73.18;99027.96;24486;1358;3058557;-71
2021/11/22 09:03:00;;;;;;;70.90;30.00;;;;;;;8.86;71.09;99028.77;24503;1357;3049120;-74
2021/11/22 09:05:29;;;;;;;71.90;32.20;;;;;;;8.75;70.81;99032.38;24514;1359;3026473;-75
2021/11/22 09:07:59;;;;;;;76.20;32.90;;;;;;;8.78;70.18;99028.90;24483;1358;3056269;-68
2021/11/22 09:10:28;;;;;;;72.30;31.50;;;;;;;8.26;71.37;99037.84;24482;1352;3026900;-73
2021/11/22 09:12:58;;;;;;;71.50;31.90;;;;;;;8.17;71.68;99028.23;24513;1355;3026798;-70
2021/11/22 09:15:27;;;;;;;80.80;36.40;;;;;;;8.18;72.18;99024.67;24520;1352;3028519;-69
2021/11/22 09:17:57;;;;;;;76.20;32.60;;;;;;;8.14;72.47;99029.95;24528;1358;3026332;-70
2021/11/22 09:20:26;;;;;;;64.30;28.30;;;;;;;7.91;73.61;99032.66;24477;1355;3052702;-71
2021/11/22 09:23:01;;;;;;;64.50;28.50;;;;;;;8.44;72.49;99029.45;24458;1354;3026243;-74
2021/11/22 09:25:30;;;;;;;67.40;28.90;;;;;;;9.04;70.17;99024.01;24459;1361;3072118;-71
2021/11/22 09:27:59;;;;;;;71.10;31.40;;;;;;;9.10;69.00;99033.74;24498;1355;3026695;-71
2021/11/22 09:30:29;;;;;;;77.20;33.80;;;;;;;8.72;70.12;99028.85;24514;1353;3050552;-69
2021/11/22 09:32:58;;;;;;;71.00;32.30;;;;;;;8.65;70.78;99025.81;24490;1358;3027256;-72
2021/11/22 09:35:27;;;;;;;77.00;34.30;;;;;;;8.54;70.91;99027.47;24478;1354;3028725;-73
2021/11/22 09:37:56;;;;;;;76.00;34.80;;;;;;;8.42;71.38;99032.90;24577;1354;3051152;-70
2021/11/22 09:40:26;;;;;;;83.90;35.60;;;;;;;8.40;71.35;99028.15;24545;1357;3026942;-68
2021/11/22 09:42:56;;;;;;;70.10;31.10;;;;;;;8.53;71.13;99031.23;24534;1359;3026840;-70
2021/11/22 09:45:29;;;;;;;68.60;30.90;;;;;;;8.54;71.08;99027.50;24504;1352;3027414;-73
2021/11/22 09:48:00;;;;;;;72.90;31.50;;;;;;;9.06;69.75;99024.41;24472;1352;3052971;-70
2021/11/22 09:50:30;;;;;;;71.90;32.30;;;;;;;8.99;69.60;99026.39;24427;1354;3026009;-75
2021/11/22 09:52:59;;;;;;;74.70;33.40;;;;;;;9.36;68.05;99033.05;24477;1360;3026203;-70
2021/11/22 09:55:31;;;;;;;100.30;41.90;;;;;;;9.01;68.96;99030.64;24496;1354;3026429;-69
2021/11/22 09:58:01;;;;;;;89.10;35.40;;;;;;;8.81;69.86;99026.08;24484;1358;3056871;-71
2021/11/22 10:00:39;;;;;;;87.60;35.10;;;;;;;8.60;70.77;99039.23;24483;1355;3027197;-70
2021/11/22 10:03:09;;;;;;;75.60;33.20;;;;;;;8.46;71.17;99033.00;24491;1357;3054467;-71
2021/11/22 10:05:40;;;;;;;82.80;36.10;;;;;;;8.23;71.75;99046.36;24521;1359;3026189;-71
2021/11/22 10:08:13;;;;;;;60.80;26.30;;;;;;;8.13;72.78;99046.08;24487;1357;3028113;-67
2021/11/22 10:10:47;;;;;;;79.60;32.60;;;;;;;8.84;70.92;99045.48;24521;1354;3026256;-71
2021/11/22 10:13:37;;;;;;;79.90;35.00;;;;;;;8.79;70.69;99041.05;24424;1354;3054010;-72
2021/11/22 10:16:12;;;;;;;68.50;29.90;;;;;;;8.94;70.21;99041.17;24501;1358;3052643;-74
2021/11/22 10:18:45;;;;;;;78.00;32.80;;;;;;;8.75;70.16;99045.66;24533;1355;3055016;-76
2021/11/22 10:21:16;;;;;;;78.50;33.10;;;;;;;8.56;70.84;99049.75;24415;1361;3029253;-71
2021/11/22 10:23:46;;;;;;;76.10;32.20;;;;;;;8.59;70.62;99046.40;24452;1357;3026784;-70
2021/11/22 10:26:16;;;;;;;85.50;35.80;;;;;;;8.27;71.68;99047.05;24489;1354;3027510;-66
2021/11/22 10:28:51;;;;;;;89.60;36.70;;;;;;;8.34;71.92;99040.67;24476;1354;3027337;-73
2021/11/22 10:31:26;;;;;;;66.40;31.00;;;;;;;8.45;71.96;99044.04;24474;1354;3048133;-71
2021/11/22 10:33:58;;;;;;;64.60;27.60;;;;;;;9.07;70.03;99041.30;24468;1361;3052823;-67
2021/11/22 10:36:28;;;;;;;68.30;30.60;;;;;;;9.39;68.35;99038.40;24510;1354;3028768;-70
2021/11/22 10:38:59;;;;;;;67.30;30.80;;;;;;;9.43;68.33;99031.20;24488;1357;3027498;-68
2021/11/22 10:41:39;;;;;;;77.50;34.30;;;;;;;9.44;68.06;99030.81;24520;1357;3026632;-70
2021/11/22 10:44:11;;;;;;;76.40;33.40;;;;;;;9.13;68.83;99036.02;24475;1353;3052844;-71
2021/11/22 10:46:46;;;;;;;75.70;34.90;;;;;;;8.78;70.28;99042.31;24528;1354;3026729;-67
2021/11/22 10:49:39;;;;;;;75.40;34.40;;;;;;;8.72;70.65;99040.40;24470;1358;3067180;-66
2021/11/22 10:52:15;;;;;;;76.70;33.90;;;;;;;8.96;69.93;99037.23;24449;1360;3051614;-71
2021/11/22 10:54:58;;;;;;;71.60;33.10;;;;;;;8.94;69.69;99035.80;24486;1352;3052165;-70
2021/11/22 10:57:34;;;;;;;90.60;35.80;;;;;;;8.80;70.22;99032.61;24551;1354;3055279;-73
2021/11/22 11:00:28;;;;;;;69.00;28.90;;;;;;;8.79;70.94;99037.71;24475;1344;3056517;-69
2021/11/22 11:02:58;;;;;;;74.80;29.40;;;;;;;9.48;69.11;99030.00;24567;1353;3049948;-66
2021/11/22 11:05:34;;;;;;;72.60;30.70;;;;;;;10.06;66.89;99024.54;24468;1354;3026463;-70
2021/11/22 11:08:05;;;;;;;68.30;31.00;;;;;;;9.98;66.28;99020.72;24528;1355;3050553;-69
2021/11/22 11:10:35;;;;;;;70.20;30.10;;;;;;;9.92;66.26;99020.41;24470;1360;3026899;-70
2021/11/22 11:13:04;;;;;;;65.20;30.10;;;;;;;9.74;66.68;99021.41;24500;1359;3026546;-66
2021/11/22 11:15:34;;;;;;;75.10;30.40;;;;;;;9.73;67.12;99023.04;24490;1353;3026931;-73
2021/11/22 11:18:21;;;;;;;70.80;32.30;;;;;;;9.59;67.45;99023.02;23810;1357;4031790;-66
2021/11/22 11:20:50;;;;;;;76.60;32.50;;;;;;;9.26;68.70;99028.27;24502;1351;3049463;-70
2021/11/22 11:23:19;;;;;;;61.30;29.00;;;;;;;9.17;69.20;99036.80;24526;1352;3027428;-71
2021/11/22 11:25:48;;;;;;;65.60;30.30;;;;;;;8.96;69.53;99037.25;24449;1354;3069409;-69